OCN1XL EDDF-LPMA
Flight info
| Callsign | OCN1XL |
|---|---|
| Flight time | 4h 8m |
| Altitude | 33000 |
| Route | ANEKI2L/18 ANEKI Y163 HERBI Y164 MOPAN DCT LUTIX/N0439F350 DCT BENOT DCT NEMOS DCT NINTU DCT MEBAK DCT REPSI DCT LERGA DCT MINSO DCT NARAK DCT AGN DCT LATEK DCT PPN DCT MIRPO DCT DGO DCT NEA DCT ARDID DCT GANSU/N0443F370 DCT NARTA DCT RAKUN |
| Aircraft | A320/M-SDE2E3FGIJ1LORWXYZ/HB1 |
Departure
| Time | 2026-04-15 11:16 |
|---|---|
| Airport | Frankfurt Main Airport (EDDF) |
Arrival
| Time | 2026-04-15 15:24 |
|---|---|
| Airport | Cristiano Ronaldo International Airport (LPMA) |
| Time | Latitude | Longitude | Altitude | Speed | Heading |
|---|---|---|---|---|---|
| 2026-04-15 10:31 | 50.04390 | 8.56168 | 362 ft | 0 kts | 155° |
| 2026-04-15 11:03 | 50.04401 | 8.56160 | 363 ft | 4 kts | 154° |
| 2026-04-15 11:03 | 50.04425 | 8.56142 | 359 ft | 4 kts | 156° |
| 2026-04-15 11:03 | 50.04449 | 8.56131 | 360 ft | 4 kts | 195° |
| 2026-04-15 11:04 | 50.04457 | 8.56138 | 363 ft | 0 kts | 250° |
| 2026-04-15 11:06 | 50.04451 | 8.56111 | 361 ft | 5 kts | 250° |
| 2026-04-15 11:07 | 50.04426 | 8.56034 | 359 ft | 11 kts | 229° |
| 2026-04-15 11:07 | 50.04349 | 8.56056 | 359 ft | 15 kts | 159° |
| 2026-04-15 11:07 | 50.04253 | 8.56011 | 356 ft | 19 kts | 243° |
| 2026-04-15 11:07 | 50.04160 | 8.55933 | 357 ft | 16 kts | 144° |
| 2026-04-15 11:08 | 50.04059 | 8.55957 | 351 ft | 16 kts | 205° |
| 2026-04-15 11:08 | 50.04018 | 8.55830 | 358 ft | 13 kts | 248° |
| 2026-04-15 11:08 | 50.03989 | 8.55710 | 357 ft | 11 kts | 250° |
| 2026-04-15 11:08 | 50.03964 | 8.55605 | 356 ft | 10 kts | 251° |
| 2026-04-15 11:09 | 50.03935 | 8.55474 | 358 ft | 18 kts | 251° |
| 2026-04-15 11:09 | 50.03879 | 8.55243 | 358 ft | 25 kts | 249° |
| 2026-04-15 11:09 | 50.03826 | 8.55025 | 349 ft | 15 kts | 249° |
| 2026-04-15 11:09 | 50.03791 | 8.54872 | 353 ft | 15 kts | 251° |
| 2026-04-15 11:10 | 50.03756 | 8.54727 | 351 ft | 16 kts | 249° |
| 2026-04-15 11:10 | 50.03712 | 8.54548 | 350 ft | 20 kts | 249° |
| 2026-04-15 11:10 | 50.03660 | 8.54329 | 347 ft | 23 kts | 250° |
| 2026-04-15 11:10 | 50.03602 | 8.54088 | 349 ft | 25 kts | 249° |
| 2026-04-15 11:11 | 50.03538 | 8.53823 | 339 ft | 27 kts | 249° |
| 2026-04-15 11:11 | 50.03487 | 8.53606 | 335 ft | 13 kts | 249° |
| 2026-04-15 11:11 | 50.03453 | 8.53459 | 338 ft | 16 kts | 250° |
| 2026-04-15 11:11 | 50.03412 | 8.53286 | 336 ft | 19 kts | 249° |
| 2026-04-15 11:12 | 50.03363 | 8.53082 | 336 ft | 22 kts | 249° |
| 2026-04-15 11:12 | 50.03310 | 8.52865 | 331 ft | 13 kts | 250° |
| 2026-04-15 11:12 | 50.03286 | 8.52765 | 332 ft | 7 kts | 249° |
| 2026-04-15 11:12 | 50.03281 | 8.52743 | 331 ft | 0 kts | 249° |
| 2026-04-15 11:13 | 50.03274 | 8.52715 | 331 ft | 8 kts | 249° |
| 2026-04-15 11:13 | 50.03233 | 8.52599 | 332 ft | 16 kts | 209° |
| 2026-04-15 11:14 | 50.03155 | 8.52594 | 334 ft | 0 kts | 179° |
| 2026-04-15 11:14 | 50.03153 | 8.52594 | 333 ft | 2 kts | 179° |
| 2026-04-15 11:15 | 50.02986 | 8.52597 | 335 ft | 58 kts | 180° |
| 2026-04-15 11:15 | 50.02363 | 8.52605 | 335 ft | 119 kts | 180° |
| 2026-04-15 11:15 | 50.01361 | 8.52631 | 336 ft | 167 kts | 178° |
| 2026-04-15 11:15 | 50.00158 | 8.52701 | 879 ft | 170 kts | 178° |
| 2026-04-15 11:16 | 49.98995 | 8.52728 | 1642 ft | 171 kts | 176° |
| 2026-04-15 11:16 | 49.97744 | 8.52805 | 2014 ft | 187 kts | 176° |
| 2026-04-15 11:16 | 49.96383 | 8.52904 | 2230 ft | 209 kts | 175° |
| 2026-04-15 11:16 | 49.94863 | 8.53012 | 2605 ft | 226 kts | 175° |
| 2026-04-15 11:17 | 49.93283 | 8.53120 | 3331 ft | 228 kts | 176° |
| 2026-04-15 11:17 | 49.91685 | 8.53230 | 4000 ft | 232 kts | 175° |
| 2026-04-15 11:17 | 49.90072 | 8.53343 | 4286 ft | 233 kts | 175° |
| 2026-04-15 11:17 | 49.88457 | 8.53453 | 5127 ft | 231 kts | 176° |
| 2026-04-15 11:18 | 49.86850 | 8.53562 | 5882 ft | 232 kts | 177° |
| 2026-04-15 11:18 | 49.85235 | 8.53671 | 6634 ft | 234 kts | 178° |
| 2026-04-15 11:18 | 49.83602 | 8.53780 | 7282 ft | 236 kts | 178° |
| 2026-04-15 11:18 | 49.81947 | 8.53889 | 7933 ft | 240 kts | 178° |
| 2026-04-15 11:19 | 49.80268 | 8.54001 | 8601 ft | 243 kts | 178° |
| 2026-04-15 11:19 | 49.78568 | 8.54115 | 9286 ft | 246 kts | 179° |
| 2026-04-15 11:19 | 49.76823 | 8.53981 | 9737 ft | 261 kts | 185° |
| 2026-04-15 11:19 | 49.74938 | 8.53733 | 10024 ft | 280 kts | 185° |
| 2026-04-15 11:20 | 49.72958 | 8.53467 | 10402 ft | 295 kts | 186° |
| 2026-04-15 11:20 | 49.70832 | 8.53177 | 10547 ft | 318 kts | 186° |
| 2026-04-15 11:20 | 49.68563 | 8.52870 | 10842 ft | 333 kts | 186° |
| 2026-04-15 11:20 | 49.66233 | 8.52561 | 11428 ft | 338 kts | 186° |
| 2026-04-15 11:21 | 49.63871 | 8.52250 | 12030 ft | 343 kts | 185° |
| 2026-04-15 11:21 | 49.61484 | 8.51937 | 12645 ft | 347 kts | 185° |
| 2026-04-15 11:21 | 49.59071 | 8.51624 | 13260 ft | 350 kts | 185° |
| 2026-04-15 11:21 | 49.56622 | 8.51306 | 13869 ft | 354 kts | 185° |
| 2026-04-15 11:22 | 49.54164 | 8.50988 | 14416 ft | 357 kts | 186° |
| 2026-04-15 11:22 | 49.51679 | 8.50662 | 14950 ft | 360 kts | 186° |
| 2026-04-15 11:22 | 49.49173 | 8.50332 | 15500 ft | 363 kts | 186° |
| 2026-04-15 11:22 | 49.46644 | 8.49997 | 16031 ft | 366 kts | 186° |
| 2026-04-15 11:23 | 49.44093 | 8.49660 | 16567 ft | 369 kts | 186° |
| 2026-04-15 11:23 | 49.41522 | 8.49322 | 17082 ft | 372 kts | 185° |
| 2026-04-15 11:23 | 49.38933 | 8.48983 | 17614 ft | 375 kts | 185° |
| 2026-04-15 11:23 | 49.36315 | 8.48643 | 18112 ft | 378 kts | 186° |
| 2026-04-15 11:24 | 49.33682 | 8.48297 | 18612 ft | 381 kts | 185° |
| 2026-04-15 11:24 | 49.31068 | 8.47956 | 19032 ft | 384 kts | 185° |
| 2026-04-15 11:24 | 49.28390 | 8.47610 | 19456 ft | 387 kts | 185° |
| 2026-04-15 11:24 | 49.25694 | 8.47262 | 19876 ft | 390 kts | 186° |
| 2026-04-15 11:25 | 49.22980 | 8.46909 | 20295 ft | 393 kts | 186° |
| 2026-04-15 11:25 | 49.20240 | 8.46552 | 20680 ft | 397 kts | 185° |
| 2026-04-15 11:25 | 49.17475 | 8.46191 | 21063 ft | 400 kts | 186° |
| 2026-04-15 11:25 | 49.14693 | 8.45828 | 21456 ft | 403 kts | 185° |
| 2026-04-15 11:26 | 49.11885 | 8.45462 | 21878 ft | 405 kts | 186° |
| 2026-04-15 11:26 | 49.09062 | 8.45096 | 22257 ft | 409 kts | 186° |
| 2026-04-15 11:26 | 49.06226 | 8.44654 | 22630 ft | 411 kts | 191° |
| 2026-04-15 11:26 | 49.03426 | 8.43732 | 23018 ft | 413 kts | 194° |
| 2026-04-15 11:27 | 49.00619 | 8.42745 | 23416 ft | 415 kts | 194° |
| 2026-04-15 11:27 | 48.97796 | 8.41757 | 23780 ft | 418 kts | 194° |
| 2026-04-15 11:27 | 48.94957 | 8.40771 | 24087 ft | 420 kts | 194° |
| 2026-04-15 11:27 | 48.92094 | 8.39783 | 24393 ft | 423 kts | 194° |
| 2026-04-15 11:28 | 48.89213 | 8.38789 | 24704 ft | 426 kts | 194° |
| 2026-04-15 11:28 | 48.86311 | 8.37785 | 24993 ft | 429 kts | 194° |
| 2026-04-15 11:28 | 48.83396 | 8.36774 | 25283 ft | 431 kts | 194° |
| 2026-04-15 11:28 | 48.80467 | 8.35757 | 25566 ft | 434 kts | 194° |
| 2026-04-15 11:29 | 48.77515 | 8.34730 | 25845 ft | 436 kts | 194° |
| 2026-04-15 11:29 | 48.74547 | 8.33667 | 26100 ft | 439 kts | 195° |
| 2026-04-15 11:29 | 48.71567 | 8.32574 | 26363 ft | 442 kts | 195° |
| 2026-04-15 11:29 | 48.68570 | 8.31461 | 26631 ft | 445 kts | 195° |
| 2026-04-15 11:30 | 48.65558 | 8.30345 | 26897 ft | 447 kts | 195° |
| 2026-04-15 11:30 | 48.62523 | 8.29230 | 27164 ft | 450 kts | 195° |
| 2026-04-15 11:30 | 48.59469 | 8.28119 | 27429 ft | 452 kts | 195° |
| 2026-04-15 11:30 | 48.56400 | 8.27007 | 27705 ft | 455 kts | 195° |
| 2026-04-15 11:31 | 48.53320 | 8.25890 | 27961 ft | 457 kts | 195° |
| 2026-04-15 11:31 | 48.50212 | 8.24766 | 28213 ft | 460 kts | 195° |
| 2026-04-15 11:31 | 48.47097 | 8.23643 | 28472 ft | 462 kts | 195° |
| 2026-04-15 11:31 | 48.43962 | 8.22504 | 28722 ft | 464 kts | 195° |
| 2026-04-15 11:32 | 48.40814 | 8.21352 | 28973 ft | 467 kts | 195° |
| 2026-04-15 11:32 | 48.37653 | 8.20190 | 29217 ft | 469 kts | 195° |
| 2026-04-15 11:32 | 48.34475 | 8.19022 | 29426 ft | 472 kts | 195° |
| 2026-04-15 11:32 | 48.31281 | 8.17858 | 29641 ft | 474 kts | 195° |
| 2026-04-15 11:33 | 48.28067 | 8.16691 | 29861 ft | 476 kts | 195° |
| 2026-04-15 11:33 | 48.24871 | 8.15351 | 30079 ft | 476 kts | 202° |
| 2026-04-15 11:33 | 48.21837 | 8.13390 | 30290 ft | 475 kts | 209° |
| 2026-04-15 11:33 | 48.18865 | 8.11178 | 30497 ft | 477 kts | 209° |
| 2026-04-15 11:34 | 48.15896 | 8.08976 | 30779 ft | 476 kts | 209° |
| 2026-04-15 11:34 | 48.12928 | 8.06781 | 31029 ft | 477 kts | 209° |
| 2026-04-15 11:34 | 48.09953 | 8.04585 | 31289 ft | 476 kts | 209° |
| 2026-04-15 11:34 | 48.06977 | 8.02395 | 31554 ft | 476 kts | 209° |
| 2026-04-15 11:35 | 48.04007 | 8.00212 | 31808 ft | 476 kts | 209° |
| 2026-04-15 11:35 | 48.01033 | 7.98030 | 32075 ft | 476 kts | 209° |
| 2026-04-15 11:35 | 47.98059 | 7.95849 | 32324 ft | 476 kts | 209° |
| 2026-04-15 11:35 | 47.95094 | 7.93677 | 32587 ft | 476 kts | 209° |
| 2026-04-15 11:36 | 47.92111 | 7.91491 | 32804 ft | 476 kts | 209° |
| 2026-04-15 11:36 | 47.89136 | 7.89310 | 33045 ft | 476 kts | 209° |
| 2026-04-15 11:36 | 47.86198 | 7.87158 | 33201 ft | 476 kts | 209° |
| 2026-04-15 11:36 | 47.83242 | 7.85001 | 33227 ft | 471 kts | 209° |
| 2026-04-15 11:37 | 47.77374 | 7.80743 | 33236 ft | 468 kts | 209° |
| 2026-04-15 11:37 | 47.71517 | 7.76493 | 33242 ft | 469 kts | 209° |
| 2026-04-15 11:38 | 47.65646 | 7.72240 | 33242 ft | 469 kts | 208° |
| 2026-04-15 11:38 | 47.59776 | 7.67999 | 33247 ft | 469 kts | 208° |
| 2026-04-15 11:39 | 47.53907 | 7.63762 | 33242 ft | 469 kts | 208° |
| 2026-04-15 11:39 | 47.48027 | 7.59539 | 33236 ft | 470 kts | 208° |
| 2026-04-15 11:40 | 47.42143 | 7.55316 | 33231 ft | 470 kts | 208° |
| 2026-04-15 11:40 | 47.36258 | 7.51114 | 33230 ft | 470 kts | 208° |
| 2026-04-15 11:41 | 47.30367 | 7.46911 | 33188 ft | 470 kts | 208° |
| 2026-04-15 11:41 | 47.24486 | 7.42722 | 33206 ft | 469 kts | 208° |
| 2026-04-15 11:42 | 47.18691 | 7.38362 | 33213 ft | 466 kts | 216° |
| 2026-04-15 11:42 | 47.13867 | 7.32190 | 33211 ft | 456 kts | 234° |
| 2026-04-15 11:43 | 47.09932 | 7.24920 | 33212 ft | 455 kts | 236° |
| 2026-04-15 11:43 | 47.05974 | 7.17642 | 33202 ft | 456 kts | 235° |
| 2026-04-15 11:44 | 47.02015 | 7.10398 | 33208 ft | 456 kts | 235° |
| 2026-04-15 11:44 | 46.98053 | 7.03149 | 33208 ft | 456 kts | 235° |
| 2026-04-15 11:45 | 46.94755 | 6.97128 | 33202 ft | 456 kts | 235° |
| 2026-04-15 11:45 | 46.90108 | 6.88686 | 33215 ft | 455 kts | 235° |
| 2026-04-15 11:46 | 46.86141 | 6.81499 | 33230 ft | 454 kts | 235° |
| 2026-04-15 11:46 | 46.82839 | 6.75546 | 33230 ft | 454 kts | 235° |
| 2026-04-15 11:47 | 46.78862 | 6.68398 | 33224 ft | 453 kts | 235° |
| 2026-04-15 11:47 | 46.74248 | 6.60088 | 33195 ft | 454 kts | 235° |
| 2026-04-15 11:48 | 46.70268 | 6.52954 | 33185 ft | 454 kts | 235° |
| 2026-04-15 11:48 | 46.66928 | 6.46985 | 33167 ft | 454 kts | 234° |
| 2026-04-15 11:49 | 46.62940 | 6.39864 | 33202 ft | 453 kts | 234° |
| 2026-04-15 11:49 | 46.58954 | 6.32777 | 33209 ft | 452 kts | 234° |
| 2026-04-15 11:50 | 46.54998 | 6.25750 | 33204 ft | 452 kts | 234° |
| 2026-04-15 11:50 | 46.51012 | 6.18702 | 33206 ft | 451 kts | 234° |
| 2026-04-15 11:51 | 46.46999 | 6.11624 | 33203 ft | 451 kts | 234° |
| 2026-04-15 11:51 | 46.43015 | 6.04605 | 33200 ft | 451 kts | 234° |
| 2026-04-15 11:52 | 46.39032 | 5.97610 | 33206 ft | 450 kts | 234° |
| 2026-04-15 11:52 | 46.35048 | 5.90638 | 33216 ft | 449 kts | 234° |
| 2026-04-15 11:53 | 46.31092 | 5.83726 | 33210 ft | 448 kts | 234° |
| 2026-04-15 11:53 | 46.27112 | 5.76791 | 33204 ft | 448 kts | 234° |
| 2026-04-15 11:54 | 46.23136 | 5.69863 | 33206 ft | 448 kts | 234° |
| 2026-04-15 11:54 | 46.19154 | 5.62953 | 33198 ft | 448 kts | 234° |
| 2026-04-15 11:55 | 46.15158 | 5.56052 | 33188 ft | 448 kts | 235° |
| 2026-04-15 11:55 | 46.11591 | 5.48768 | 33200 ft | 444 kts | 239° |
| 2026-04-15 11:56 | 46.08082 | 5.41439 | 33200 ft | 444 kts | 239° |
| 2026-04-15 11:56 | 46.04567 | 5.34140 | 33213 ft | 443 kts | 239° |
| 2026-04-15 11:57 | 45.99303 | 5.23210 | 33203 ft | 443 kts | 239° |
| 2026-04-15 11:58 | 45.95778 | 5.15935 | 33202 ft | 443 kts | 239° |
| 2026-04-15 11:58 | 45.92250 | 5.08679 | 33212 ft | 442 kts | 239° |
| 2026-04-15 11:59 | 45.88730 | 5.01450 | 33218 ft | 441 kts | 239° |
| 2026-04-15 11:59 | 45.85211 | 4.94229 | 33213 ft | 441 kts | 239° |
| 2026-04-15 12:00 | 45.81689 | 4.87038 | 33204 ft | 441 kts | 239° |
| 2026-04-15 12:00 | 45.78163 | 4.79839 | 33205 ft | 441 kts | 239° |
| 2026-04-15 12:01 | 45.74636 | 4.72662 | 33203 ft | 441 kts | 238° |
| 2026-04-15 12:01 | 45.71096 | 4.65493 | 33202 ft | 440 kts | 238° |
| 2026-04-15 12:02 | 45.67593 | 4.58407 | 33209 ft | 439 kts | 238° |
| 2026-04-15 12:02 | 45.64072 | 4.51285 | 33213 ft | 438 kts | 238° |
| 2026-04-15 12:03 | 45.60546 | 4.44171 | 33212 ft | 438 kts | 238° |
| 2026-04-15 12:03 | 45.57014 | 4.37081 | 33212 ft | 438 kts | 238° |
| 2026-04-15 12:04 | 45.53473 | 4.29997 | 33211 ft | 438 kts | 238° |
| 2026-04-15 12:04 | 45.49939 | 4.22937 | 33211 ft | 437 kts | 238° |
| 2026-04-15 12:05 | 45.46404 | 4.15905 | 33219 ft | 436 kts | 238° |
| 2026-04-15 12:05 | 45.42875 | 4.08880 | 33219 ft | 435 kts | 238° |
| 2026-04-15 12:06 | 45.39346 | 4.01872 | 33216 ft | 435 kts | 238° |
| 2026-04-15 12:06 | 45.35814 | 3.94886 | 33211 ft | 435 kts | 238° |
| 2026-04-15 12:07 | 45.32285 | 3.87914 | 33212 ft | 435 kts | 238° |
| 2026-04-15 12:07 | 45.28744 | 3.80952 | 33208 ft | 434 kts | 238° |
| 2026-04-15 12:08 | 45.25214 | 3.74011 | 33209 ft | 433 kts | 238° |
| 2026-04-15 12:08 | 45.21753 | 3.67028 | 33211 ft | 432 kts | 239° |
| 2026-04-15 12:09 | 45.18341 | 3.60026 | 33208 ft | 432 kts | 239° |
| 2026-04-15 12:09 | 45.14912 | 3.53052 | 33206 ft | 431 kts | 238° |
| 2026-04-15 12:10 | 45.11457 | 3.46100 | 33191 ft | 431 kts | 238° |
| 2026-04-15 12:10 | 45.08002 | 3.39155 | 33189 ft | 431 kts | 238° |
| 2026-04-15 12:11 | 45.04542 | 3.32201 | 33191 ft | 432 kts | 238° |
| 2026-04-15 12:11 | 45.01079 | 3.25253 | 33192 ft | 433 kts | 238° |
| 2026-04-15 12:12 | 44.97630 | 3.18347 | 33197 ft | 433 kts | 238° |
| 2026-04-15 12:12 | 44.94124 | 3.11366 | 33196 ft | 433 kts | 238° |
| 2026-04-15 12:13 | 44.90660 | 3.04472 | 33187 ft | 433 kts | 238° |
| 2026-04-15 12:13 | 44.87174 | 2.97555 | 33220 ft | 432 kts | 238° |
| 2026-04-15 12:14 | 44.83711 | 2.90651 | 33232 ft | 430 kts | 239° |
| 2026-04-15 12:14 | 44.80444 | 2.83606 | 33223 ft | 429 kts | 241° |
| 2026-04-15 12:15 | 44.77261 | 2.76519 | 33225 ft | 428 kts | 241° |
| 2026-04-15 12:15 | 44.74044 | 2.69469 | 33228 ft | 428 kts | 240° |
| 2026-04-15 12:16 | 44.70797 | 2.62470 | 33233 ft | 427 kts | 240° |
| 2026-04-15 12:16 | 44.67544 | 2.55502 | 33248 ft | 425 kts | 240° |
| 2026-04-15 12:17 | 44.64305 | 2.48562 | 33226 ft | 424 kts | 240° |
| 2026-04-15 12:17 | 44.61087 | 2.41631 | 33228 ft | 424 kts | 240° |
| 2026-04-15 12:18 | 44.57852 | 2.34711 | 33216 ft | 424 kts | 240° |
| 2026-04-15 12:18 | 44.54601 | 2.27802 | 33212 ft | 424 kts | 239° |
| 2026-04-15 12:19 | 44.51359 | 2.20905 | 33237 ft | 423 kts | 239° |
| 2026-04-15 12:19 | 44.48140 | 2.14068 | 33249 ft | 423 kts | 239° |
| 2026-04-15 12:20 | 44.44897 | 2.07216 | 33241 ft | 422 kts | 239° |
| 2026-04-15 12:20 | 44.41654 | 2.00371 | 33240 ft | 422 kts | 239° |
| 2026-04-15 12:21 | 44.38417 | 1.93535 | 33219 ft | 422 kts | 239° |
| 2026-04-15 12:21 | 44.35168 | 1.86716 | 33242 ft | 421 kts | 239° |
| 2026-04-15 12:22 | 44.31920 | 1.79917 | 33228 ft | 420 kts | 239° |
| 2026-04-15 12:22 | 44.28689 | 1.73136 | 33238 ft | 419 kts | 239° |
| 2026-04-15 12:23 | 44.25537 | 1.66310 | 33232 ft | 418 kts | 240° |
| 2026-04-15 12:23 | 44.22435 | 1.59465 | 33236 ft | 417 kts | 240° |
| 2026-04-15 12:24 | 44.19315 | 1.52640 | 33209 ft | 418 kts | 240° |
| 2026-04-15 12:24 | 44.16175 | 1.45844 | 33232 ft | 417 kts | 240° |
| 2026-04-15 12:25 | 44.13030 | 1.39080 | 33239 ft | 416 kts | 240° |
| 2026-04-15 12:25 | 44.09885 | 1.32328 | 33239 ft | 415 kts | 240° |
| 2026-04-15 12:26 | 44.06751 | 1.25585 | 33244 ft | 415 kts | 240° |
| 2026-04-15 12:26 | 44.03616 | 1.18847 | 33248 ft | 415 kts | 240° |
| 2026-04-15 12:27 | 44.00475 | 1.12112 | 33225 ft | 415 kts | 240° |
| 2026-04-15 12:27 | 43.97731 | 1.05124 | 33245 ft | 412 kts | 246° |
| 2026-04-15 12:28 | 43.95176 | 0.98022 | 33248 ft | 411 kts | 246° |
| 2026-04-15 12:28 | 43.92639 | 0.90924 | 33247 ft | 410 kts | 246° |
| 2026-04-15 12:29 | 43.90082 | 0.83856 | 33251 ft | 410 kts | 246° |
| 2026-04-15 12:29 | 43.87504 | 0.76805 | 33248 ft | 410 kts | 245° |
| 2026-04-15 12:30 | 43.84932 | 0.69776 | 33256 ft | 408 kts | 245° |
| 2026-04-15 12:30 | 43.82380 | 0.62821 | 33242 ft | 407 kts | 245° |
| 2026-04-15 12:31 | 43.79815 | 0.55842 | 33240 ft | 406 kts | 245° |
| 2026-04-15 12:31 | 43.77260 | 0.48876 | 33235 ft | 406 kts | 245° |
| 2026-04-15 12:32 | 43.74689 | 0.41912 | 33238 ft | 406 kts | 245° |
| 2026-04-15 12:32 | 43.72112 | 0.34967 | 33240 ft | 406 kts | 245° |
| 2026-04-15 12:33 | 43.69538 | 0.28038 | 33251 ft | 405 kts | 245° |
| 2026-04-15 12:33 | 43.66969 | 0.21135 | 33248 ft | 404 kts | 245° |
| 2026-04-15 12:34 | 43.64405 | 0.14249 | 33244 ft | 403 kts | 245° |
| 2026-04-15 12:34 | 43.61840 | 0.07372 | 33224 ft | 403 kts | 245° |
| 2026-04-15 12:35 | 43.59273 | 0.00506 | 33221 ft | 403 kts | 245° |
| 2026-04-15 12:35 | 43.56697 | -0.06353 | 33231 ft | 402 kts | 245° |
| 2026-04-15 12:36 | 43.54139 | -0.13134 | 33236 ft | 401 kts | 245° |
| 2026-04-15 12:36 | 43.51567 | -0.19954 | 33229 ft | 400 kts | 245° |
| 2026-04-15 12:37 | 43.48994 | -0.26744 | 33223 ft | 400 kts | 245° |
| 2026-04-15 12:37 | 43.46419 | -0.33524 | 33218 ft | 399 kts | 245° |
| 2026-04-15 12:38 | 43.43844 | -0.40299 | 33212 ft | 399 kts | 245° |
| 2026-04-15 12:38 | 43.41687 | -0.45974 | 33192 ft | 399 kts | 245° |
| 2026-04-15 12:39 | 43.39106 | -0.52739 | 33194 ft | 400 kts | 245° |
| 2026-04-15 12:39 | 43.36529 | -0.59461 | 33197 ft | 400 kts | 245° |
| 2026-04-15 12:40 | 43.33935 | -0.66224 | 33196 ft | 401 kts | 245° |
| 2026-04-15 12:40 | 43.31332 | -0.72994 | 33199 ft | 401 kts | 245° |
| 2026-04-15 12:41 | 43.28722 | -0.79758 | 33207 ft | 400 kts | 244° |
| 2026-04-15 12:41 | 43.26120 | -0.86497 | 33213 ft | 399 kts | 244° |
| 2026-04-15 12:42 | 43.23514 | -0.93218 | 33213 ft | 399 kts | 244° |
| 2026-04-15 12:42 | 43.20908 | -0.99933 | 33199 ft | 399 kts | 244° |
| 2026-04-15 12:43 | 43.18299 | -1.06641 | 33199 ft | 399 kts | 244° |
| 2026-04-15 12:43 | 43.15687 | -1.13342 | 33199 ft | 399 kts | 244° |
| 2026-04-15 12:44 | 43.13077 | -1.20038 | 33216 ft | 398 kts | 244° |
| 2026-04-15 12:44 | 43.10475 | -1.26697 | 33213 ft | 396 kts | 244° |
| 2026-04-15 12:45 | 43.07859 | -1.33337 | 33207 ft | 396 kts | 244° |
| 2026-04-15 12:45 | 43.05241 | -1.39955 | 33204 ft | 396 kts | 244° |
| 2026-04-15 12:46 | 43.02632 | -1.46575 | 33203 ft | 395 kts | 244° |
| 2026-04-15 12:46 | 43.00022 | -1.53189 | 33190 ft | 395 kts | 244° |
| 2026-04-15 12:47 | 42.97402 | -1.59780 | 33202 ft | 395 kts | 244° |
| 2026-04-15 12:47 | 42.94790 | -1.66355 | 33205 ft | 394 kts | 244° |
| 2026-04-15 12:48 | 42.92169 | -1.72917 | 33203 ft | 393 kts | 244° |
| 2026-04-15 12:48 | 42.89554 | -1.79466 | 33202 ft | 393 kts | 244° |
| 2026-04-15 12:49 | 42.86938 | -1.86007 | 33202 ft | 393 kts | 244° |
| 2026-04-15 12:49 | 42.84318 | -1.92552 | 33207 ft | 392 kts | 244° |
| 2026-04-15 12:50 | 42.81699 | -1.99069 | 33212 ft | 392 kts | 244° |
| 2026-04-15 12:50 | 42.79097 | -2.05514 | 33208 ft | 390 kts | 244° |
| 2026-04-15 12:51 | 42.76482 | -2.11995 | 33212 ft | 391 kts | 244° |
| 2026-04-15 12:51 | 42.73867 | -2.18469 | 33205 ft | 390 kts | 243° |
| 2026-04-15 12:52 | 42.71251 | -2.24924 | 33207 ft | 390 kts | 243° |
| 2026-04-15 12:52 | 42.68627 | -2.31366 | 33216 ft | 389 kts | 243° |
| 2026-04-15 12:53 | 42.66007 | -2.37788 | 33222 ft | 388 kts | 243° |
| 2026-04-15 12:53 | 42.63395 | -2.44192 | 33218 ft | 387 kts | 243° |
| 2026-04-15 12:54 | 42.60789 | -2.50573 | 33212 ft | 386 kts | 243° |
| 2026-04-15 12:54 | 42.58175 | -2.56948 | 33199 ft | 386 kts | 243° |
| 2026-04-15 12:55 | 42.55561 | -2.63313 | 33189 ft | 386 kts | 243° |
| 2026-04-15 12:55 | 42.52940 | -2.69669 | 33198 ft | 386 kts | 243° |
| 2026-04-15 12:56 | 42.50319 | -2.76018 | 33207 ft | 385 kts | 243° |
| 2026-04-15 12:56 | 42.47703 | -2.82350 | 33209 ft | 385 kts | 243° |
| 2026-04-15 12:57 | 42.45093 | -2.88662 | 33206 ft | 384 kts | 244° |
| 2026-04-15 12:57 | 42.42766 | -2.95158 | 33204 ft | 383 kts | 248° |
| 2026-04-15 12:58 | 42.40627 | -3.01741 | 33206 ft | 382 kts | 248° |
| 2026-04-15 12:58 | 42.38457 | -3.08312 | 33221 ft | 382 kts | 247° |
| 2026-04-15 12:59 | 42.35114 | -3.18073 | 33202 ft | 381 kts | 247° |
| 2026-04-15 12:59 | 42.32870 | -3.24570 | 33211 ft | 382 kts | 247° |
| 2026-04-15 13:00 | 42.30635 | -3.31069 | 33220 ft | 381 kts | 247° |
| 2026-04-15 13:00 | 42.28401 | -3.37570 | 33224 ft | 382 kts | 247° |
| 2026-04-15 13:01 | 42.26161 | -3.44061 | 33247 ft | 381 kts | 246° |
| 2026-04-15 13:01 | 42.23915 | -3.50539 | 33254 ft | 380 kts | 246° |
| 2026-04-15 13:02 | 42.21694 | -3.56954 | 33253 ft | 379 kts | 246° |
| 2026-04-15 13:02 | 42.19442 | -3.63434 | 33250 ft | 379 kts | 246° |
| 2026-04-15 13:03 | 42.17199 | -3.69860 | 33240 ft | 379 kts | 246° |
| 2026-04-15 13:03 | 42.14971 | -3.76237 | 33233 ft | 378 kts | 246° |
| 2026-04-15 13:04 | 42.12709 | -3.82687 | 33223 ft | 378 kts | 246° |
| 2026-04-15 13:04 | 42.10470 | -3.89041 | 33224 ft | 378 kts | 246° |
| 2026-04-15 13:05 | 42.08214 | -3.95427 | 33231 ft | 378 kts | 246° |
| 2026-04-15 13:05 | 42.05979 | -4.01768 | 33228 ft | 377 kts | 246° |
| 2026-04-15 13:06 | 42.03728 | -4.08151 | 33227 ft | 377 kts | 246° |
| 2026-04-15 13:06 | 42.01443 | -4.14503 | 33232 ft | 377 kts | 245° |
| 2026-04-15 13:07 | 41.99051 | -4.20779 | 33229 ft | 377 kts | 244° |
| 2026-04-15 13:07 | 41.96635 | -4.27040 | 33232 ft | 377 kts | 245° |
| 2026-04-15 13:08 | 41.94238 | -4.33310 | 33236 ft | 377 kts | 245° |
| 2026-04-15 13:08 | 41.91846 | -4.39578 | 33234 ft | 377 kts | 245° |
| 2026-04-15 13:09 | 41.89458 | -4.45846 | 33212 ft | 377 kts | 245° |
| 2026-04-15 13:09 | 41.87060 | -4.52105 | 33217 ft | 378 kts | 245° |
| 2026-04-15 13:10 | 41.84647 | -4.58369 | 33233 ft | 378 kts | 244° |
| 2026-04-15 13:10 | 41.82232 | -4.64626 | 33238 ft | 378 kts | 244° |
| 2026-04-15 13:11 | 41.79816 | -4.70877 | 33241 ft | 377 kts | 244° |
| 2026-04-15 13:11 | 41.77400 | -4.77119 | 33239 ft | 377 kts | 244° |
| 2026-04-15 13:12 | 41.74985 | -4.83352 | 33236 ft | 377 kts | 244° |
| 2026-04-15 13:12 | 41.72568 | -4.89575 | 33236 ft | 377 kts | 244° |
| 2026-04-15 13:13 | 41.70145 | -4.95798 | 33241 ft | 377 kts | 244° |
| 2026-04-15 13:13 | 41.67734 | -5.01966 | 33248 ft | 376 kts | 244° |
| 2026-04-15 13:14 | 41.65311 | -5.08155 | 33226 ft | 376 kts | 244° |
| 2026-04-15 13:14 | 41.62886 | -5.14344 | 33228 ft | 376 kts | 244° |
| 2026-04-15 13:15 | 41.60456 | -5.20543 | 33231 ft | 376 kts | 244° |
| 2026-04-15 13:15 | 41.58019 | -5.26735 | 33235 ft | 377 kts | 244° |
| 2026-04-15 13:16 | 41.55580 | -5.32917 | 33231 ft | 377 kts | 244° |
| 2026-04-15 13:16 | 41.53129 | -5.39101 | 33245 ft | 376 kts | 244° |
| 2026-04-15 13:17 | 41.50688 | -5.45259 | 33241 ft | 376 kts | 244° |
| 2026-04-15 13:17 | 41.48243 | -5.51414 | 33241 ft | 375 kts | 244° |
| 2026-04-15 13:18 | 41.45803 | -5.57566 | 33243 ft | 375 kts | 244° |
| 2026-04-15 13:18 | 41.43363 | -5.63705 | 33239 ft | 375 kts | 244° |
| 2026-04-15 13:19 | 41.40910 | -5.69838 | 33220 ft | 375 kts | 244° |
| 2026-04-15 13:19 | 41.38448 | -5.75967 | 33225 ft | 376 kts | 243° |
| 2026-04-15 13:20 | 41.35980 | -5.82100 | 33231 ft | 376 kts | 244° |
| 2026-04-15 13:20 | 41.33517 | -5.88233 | 33233 ft | 376 kts | 244° |
| 2026-04-15 13:21 | 41.31054 | -5.94361 | 33229 ft | 376 kts | 244° |
| 2026-04-15 13:21 | 41.28585 | -6.00497 | 33233 ft | 376 kts | 243° |
| 2026-04-15 13:22 | 41.26112 | -6.06616 | 33237 ft | 376 kts | 243° |
| 2026-04-15 13:22 | 41.23635 | -6.12731 | 33242 ft | 375 kts | 243° |
| 2026-04-15 13:23 | 41.21150 | -6.18827 | 33250 ft | 375 kts | 243° |
| 2026-04-15 13:23 | 41.18667 | -6.24914 | 33249 ft | 375 kts | 243° |
| 2026-04-15 13:24 | 41.15500 | -6.30403 | 33227 ft | 381 kts | 226° |
| 2026-04-15 13:24 | 41.11537 | -6.35082 | 33230 ft | 382 kts | 226° |
| 2026-04-15 13:25 | 41.08244 | -6.38984 | 33235 ft | 382 kts | 226° |
| 2026-04-15 13:25 | 41.04279 | -6.43682 | 33235 ft | 383 kts | 226° |
| 2026-04-15 13:26 | 41.00307 | -6.48380 | 33246 ft | 382 kts | 226° |
| 2026-04-15 13:26 | 40.96334 | -6.53049 | 33260 ft | 382 kts | 226° |
| 2026-04-15 13:27 | 40.92358 | -6.57713 | 33224 ft | 382 kts | 226° |
| 2026-04-15 13:27 | 40.88380 | -6.62385 | 33223 ft | 383 kts | 226° |
| 2026-04-15 13:28 | 40.84394 | -6.67060 | 33223 ft | 384 kts | 226° |
| 2026-04-15 13:28 | 40.80391 | -6.71732 | 33228 ft | 384 kts | 226° |
| 2026-04-15 13:29 | 40.76387 | -6.76412 | 33229 ft | 384 kts | 226° |
| 2026-04-15 13:29 | 40.72381 | -6.81087 | 33225 ft | 384 kts | 225° |
| 2026-04-15 13:30 | 40.68373 | -6.85750 | 33225 ft | 385 kts | 225° |
| 2026-04-15 13:30 | 40.64385 | -6.90382 | 33232 ft | 385 kts | 225° |
| 2026-04-15 13:31 | 40.60376 | -6.95042 | 33232 ft | 384 kts | 225° |
| 2026-04-15 13:31 | 40.56366 | -6.99697 | 33238 ft | 385 kts | 225° |
| 2026-04-15 13:32 | 40.52350 | -7.04343 | 33235 ft | 385 kts | 225° |
| 2026-04-15 13:32 | 40.48327 | -7.08981 | 33237 ft | 385 kts | 225° |
| 2026-04-15 13:33 | 40.44302 | -7.13609 | 33237 ft | 385 kts | 225° |
| 2026-04-15 13:33 | 40.40275 | -7.18238 | 33238 ft | 385 kts | 225° |
| 2026-04-15 13:34 | 40.36252 | -7.22866 | 33241 ft | 385 kts | 225° |
| 2026-04-15 13:34 | 40.32229 | -7.27488 | 33238 ft | 384 kts | 225° |
| 2026-04-15 13:35 | 40.28205 | -7.32091 | 33248 ft | 384 kts | 225° |
| 2026-04-15 13:35 | 40.24178 | -7.36692 | 33248 ft | 384 kts | 225° |
| 2026-04-15 13:36 | 40.20149 | -7.41285 | 33225 ft | 384 kts | 225° |
| 2026-04-15 13:36 | 40.16116 | -7.45878 | 33235 ft | 385 kts | 225° |
| 2026-04-15 13:37 | 40.12079 | -7.50479 | 33232 ft | 385 kts | 225° |
| 2026-04-15 13:37 | 40.08037 | -7.55074 | 33233 ft | 385 kts | 225° |
| 2026-04-15 13:38 | 40.03986 | -7.59659 | 33240 ft | 385 kts | 225° |
| 2026-04-15 13:38 | 39.99936 | -7.64246 | 33222 ft | 385 kts | 224° |
| 2026-04-15 13:39 | 39.95882 | -7.68818 | 33228 ft | 386 kts | 225° |
| 2026-04-15 13:39 | 39.91819 | -7.73396 | 33224 ft | 386 kts | 225° |
| 2026-04-15 13:40 | 39.87757 | -7.77968 | 33228 ft | 387 kts | 225° |
| 2026-04-15 13:40 | 39.83718 | -7.82523 | 33227 ft | 387 kts | 225° |
| 2026-04-15 13:41 | 39.79645 | -7.87100 | 33232 ft | 387 kts | 225° |
| 2026-04-15 13:41 | 39.75568 | -7.91670 | 33226 ft | 387 kts | 224° |
| 2026-04-15 13:42 | 39.71478 | -7.96240 | 33230 ft | 388 kts | 224° |
| 2026-04-15 13:42 | 39.67383 | -8.00810 | 33234 ft | 388 kts | 224° |
| 2026-04-15 13:43 | 39.63288 | -8.05376 | 33242 ft | 389 kts | 224° |
| 2026-04-15 13:43 | 39.59182 | -8.09945 | 33244 ft | 389 kts | 224° |
| 2026-04-15 13:44 | 39.55074 | -8.14515 | 33247 ft | 389 kts | 224° |
| 2026-04-15 13:44 | 39.50963 | -8.19080 | 33231 ft | 390 kts | 224° |
| 2026-04-15 13:45 | 39.46844 | -8.23647 | 33243 ft | 390 kts | 224° |
| 2026-04-15 13:47 | 39.30279 | -8.41916 | 33264 ft | 391 kts | 224° |
| 2026-04-15 13:47 | 39.26142 | -8.46480 | 33252 ft | 391 kts | 224° |
| 2026-04-15 13:48 | 39.22025 | -8.51005 | 33261 ft | 392 kts | 224° |
| 2026-04-15 13:48 | 39.17866 | -8.55559 | 33265 ft | 392 kts | 224° |
| 2026-04-15 13:49 | 39.13697 | -8.60115 | 33266 ft | 393 kts | 224° |
| 2026-04-15 13:49 | 39.09528 | -8.64670 | 33272 ft | 393 kts | 224° |
| 2026-04-15 13:50 | 39.05353 | -8.69218 | 33274 ft | 393 kts | 223° |
| 2026-04-15 13:50 | 39.01173 | -8.73764 | 33264 ft | 394 kts | 223° |
| 2026-04-15 13:51 | 38.96987 | -8.78313 | 33273 ft | 394 kts | 223° |
| 2026-04-15 13:51 | 38.92799 | -8.82860 | 33279 ft | 394 kts | 223° |
| 2026-04-15 13:52 | 38.88606 | -8.87401 | 33281 ft | 395 kts | 223° |
| 2026-04-15 13:52 | 38.84405 | -8.91945 | 33282 ft | 395 kts | 223° |
| 2026-04-15 13:53 | 38.80201 | -8.96487 | 33286 ft | 395 kts | 223° |
| 2026-04-15 13:53 | 38.75988 | -9.01026 | 33276 ft | 396 kts | 223° |
| 2026-04-15 13:54 | 38.71770 | -9.05566 | 33279 ft | 397 kts | 223° |
| 2026-04-15 13:54 | 38.67541 | -9.10116 | 33284 ft | 397 kts | 223° |
| 2026-04-15 13:55 | 38.63314 | -9.14660 | 33285 ft | 397 kts | 223° |
| 2026-04-15 13:55 | 38.59082 | -9.19190 | 33289 ft | 397 kts | 223° |
| 2026-04-15 13:56 | 38.54845 | -9.23719 | 33286 ft | 397 kts | 223° |
| 2026-04-15 13:56 | 38.50606 | -9.28244 | 33290 ft | 397 kts | 222° |
| 2026-04-15 13:57 | 38.46367 | -9.32765 | 33290 ft | 398 kts | 222° |
| 2026-04-15 13:57 | 38.42121 | -9.37289 | 33300 ft | 398 kts | 222° |
| 2026-04-15 13:58 | 38.37894 | -9.41783 | 33302 ft | 398 kts | 222° |
| 2026-04-15 13:58 | 38.33634 | -9.46303 | 33304 ft | 399 kts | 222° |
| 2026-04-15 13:59 | 38.29343 | -9.50847 | 33308 ft | 398 kts | 222° |
| 2026-04-15 13:59 | 38.25081 | -9.55352 | 33293 ft | 398 kts | 222° |
| 2026-04-15 14:00 | 38.20809 | -9.59861 | 33294 ft | 399 kts | 222° |
| 2026-04-15 14:00 | 38.16535 | -9.64363 | 33298 ft | 399 kts | 222° |
| 2026-04-15 14:01 | 38.10120 | -9.71123 | 33300 ft | 400 kts | 222° |
| 2026-04-15 14:02 | 38.05869 | -9.75589 | 33301 ft | 400 kts | 222° |
| 2026-04-15 14:02 | 38.01585 | -9.80084 | 33301 ft | 399 kts | 222° |
| 2026-04-15 14:03 | 37.97720 | -9.85086 | 33307 ft | 397 kts | 231° |
| 2026-04-15 14:03 | 37.94118 | -9.90382 | 33307 ft | 397 kts | 231° |
| 2026-04-15 14:04 | 37.90513 | -9.95670 | 33306 ft | 396 kts | 231° |
| 2026-04-15 14:04 | 37.86906 | -10.00945 | 33306 ft | 396 kts | 231° |
| 2026-04-15 14:05 | 37.83305 | -10.06213 | 33301 ft | 396 kts | 231° |
| 2026-04-15 14:05 | 37.79697 | -10.11472 | 33300 ft | 396 kts | 230° |
| 2026-04-15 14:06 | 37.76087 | -10.16725 | 33304 ft | 396 kts | 230° |
| 2026-04-15 14:06 | 37.72476 | -10.21972 | 33295 ft | 396 kts | 230° |
| 2026-04-15 14:07 | 37.68856 | -10.27226 | 33296 ft | 397 kts | 230° |
| 2026-04-15 14:07 | 37.65233 | -10.32483 | 33300 ft | 397 kts | 230° |
| 2026-04-15 14:08 | 37.61631 | -10.37703 | 33299 ft | 397 kts | 230° |
| 2026-04-15 14:08 | 37.57969 | -10.42988 | 33304 ft | 398 kts | 230° |
| 2026-04-15 14:09 | 37.54350 | -10.48194 | 33302 ft | 398 kts | 230° |
| 2026-04-15 14:09 | 37.50709 | -10.53439 | 33304 ft | 398 kts | 230° |
| 2026-04-15 14:10 | 37.47068 | -10.58685 | 33288 ft | 398 kts | 230° |
| 2026-04-15 14:10 | 37.43418 | -10.63933 | 33293 ft | 399 kts | 230° |
| 2026-04-15 14:11 | 37.39759 | -10.69178 | 33300 ft | 399 kts | 230° |
| 2026-04-15 14:11 | 37.36095 | -10.74422 | 33302 ft | 399 kts | 230° |
| 2026-04-15 14:12 | 37.32422 | -10.79662 | 33304 ft | 399 kts | 230° |
| 2026-04-15 14:12 | 37.28751 | -10.84898 | 33306 ft | 399 kts | 230° |
| 2026-04-15 14:13 | 37.25079 | -10.90127 | 33311 ft | 400 kts | 230° |
| 2026-04-15 14:13 | 37.21393 | -10.95357 | 33315 ft | 400 kts | 230° |
| 2026-04-15 14:14 | 37.17713 | -11.00585 | 33299 ft | 400 kts | 230° |
| 2026-04-15 14:14 | 37.14019 | -11.05817 | 33304 ft | 401 kts | 229° |
| 2026-04-15 14:15 | 37.10946 | -11.10166 | 33307 ft | 401 kts | 229° |
| 2026-04-15 14:15 | 37.07243 | -11.15395 | 33307 ft | 401 kts | 229° |
| 2026-04-15 14:16 | 37.03538 | -11.20626 | 33311 ft | 402 kts | 229° |
| 2026-04-15 14:16 | 36.99829 | -11.25858 | 33314 ft | 402 kts | 229° |
| 2026-04-15 14:17 | 36.96087 | -11.31118 | 33323 ft | 402 kts | 229° |
| 2026-04-15 14:17 | 36.92368 | -11.36333 | 33313 ft | 402 kts | 229° |
| 2026-04-15 14:18 | 36.88647 | -11.41544 | 33309 ft | 402 kts | 229° |
| 2026-04-15 14:18 | 36.84945 | -11.46725 | 33307 ft | 402 kts | 229° |
| 2026-04-15 14:19 | 36.81217 | -11.51937 | 33308 ft | 403 kts | 229° |
| 2026-04-15 14:19 | 36.77484 | -11.57148 | 33308 ft | 403 kts | 229° |
| 2026-04-15 14:20 | 36.73746 | -11.62353 | 33309 ft | 403 kts | 229° |
| 2026-04-15 14:20 | 36.70011 | -11.67553 | 33309 ft | 403 kts | 229° |
| 2026-04-15 14:21 | 36.66275 | -11.72741 | 33309 ft | 402 kts | 229° |
| 2026-04-15 14:21 | 36.62532 | -11.77927 | 33298 ft | 402 kts | 229° |
| 2026-04-15 14:22 | 36.58785 | -11.83104 | 33299 ft | 403 kts | 229° |
| 2026-04-15 14:22 | 36.55037 | -11.88284 | 33300 ft | 403 kts | 229° |
| 2026-04-15 14:23 | 36.51287 | -11.93459 | 33304 ft | 403 kts | 229° |
| 2026-04-15 14:23 | 36.47527 | -11.98643 | 33305 ft | 403 kts | 229° |
| 2026-04-15 14:24 | 36.43761 | -12.03816 | 33310 ft | 404 kts | 229° |
| 2026-04-15 14:24 | 36.39996 | -12.08983 | 33306 ft | 404 kts | 229° |
| 2026-04-15 14:25 | 36.36226 | -12.14159 | 33293 ft | 404 kts | 229° |
| 2026-04-15 14:25 | 36.32457 | -12.19326 | 33301 ft | 404 kts | 229° |
| 2026-04-15 14:26 | 36.28683 | -12.24489 | 33299 ft | 404 kts | 229° |
| 2026-04-15 14:26 | 36.24903 | -12.29641 | 33302 ft | 404 kts | 229° |
| 2026-04-15 14:27 | 36.21115 | -12.34800 | 33307 ft | 404 kts | 229° |
| 2026-04-15 14:27 | 36.17327 | -12.39948 | 33308 ft | 404 kts | 228° |
| 2026-04-15 14:28 | 36.13539 | -12.45092 | 33315 ft | 405 kts | 228° |
| 2026-04-15 14:28 | 36.09752 | -12.50242 | 33313 ft | 405 kts | 228° |
| 2026-04-15 14:29 | 36.05978 | -12.55342 | 33303 ft | 405 kts | 228° |
| 2026-04-15 14:29 | 36.02156 | -12.60504 | 33307 ft | 405 kts | 228° |
| 2026-04-15 14:30 | 35.98362 | -12.65641 | 33307 ft | 404 kts | 228° |
| 2026-04-15 14:30 | 35.94592 | -12.70731 | 33310 ft | 404 kts | 228° |
| 2026-04-15 14:31 | 35.90784 | -12.75845 | 33311 ft | 404 kts | 228° |
| 2026-04-15 14:31 | 35.86981 | -12.80960 | 33314 ft | 405 kts | 228° |
| 2026-04-15 14:32 | 35.83175 | -12.86064 | 33312 ft | 405 kts | 228° |
| 2026-04-15 14:32 | 35.79361 | -12.91176 | 33303 ft | 405 kts | 228° |
| 2026-04-15 14:33 | 35.75545 | -12.96272 | 33312 ft | 405 kts | 228° |
| 2026-04-15 14:33 | 35.71733 | -13.01372 | 33309 ft | 405 kts | 228° |
| 2026-04-15 14:34 | 35.67915 | -13.06459 | 33317 ft | 405 kts | 228° |
| 2026-04-15 14:34 | 35.64096 | -13.11542 | 33318 ft | 405 kts | 228° |
| 2026-04-15 14:35 | 35.60276 | -13.16624 | 33317 ft | 405 kts | 227° |
| 2026-04-15 14:35 | 35.56453 | -13.21705 | 33316 ft | 405 kts | 227° |
| 2026-04-15 14:36 | 35.52628 | -13.26786 | 33316 ft | 405 kts | 227° |
| 2026-04-15 14:36 | 35.48794 | -13.31848 | 33310 ft | 405 kts | 227° |
| 2026-04-15 14:37 | 35.44952 | -13.36907 | 33312 ft | 405 kts | 227° |
| 2026-04-15 14:37 | 35.41118 | -13.41969 | 33314 ft | 405 kts | 227° |
| 2026-04-15 14:38 | 35.37292 | -13.47035 | 33316 ft | 405 kts | 227° |
| 2026-04-15 14:38 | 35.33451 | -13.52087 | 33321 ft | 405 kts | 227° |
| 2026-04-15 14:39 | 35.29602 | -13.57134 | 33316 ft | 405 kts | 227° |
| 2026-04-15 14:39 | 35.25783 | -13.62151 | 33315 ft | 405 kts | 227° |
| 2026-04-15 14:40 | 35.21915 | -13.67227 | 33315 ft | 405 kts | 227° |
| 2026-04-15 14:40 | 35.18090 | -13.72239 | 33314 ft | 406 kts | 227° |
| 2026-04-15 14:41 | 35.14236 | -13.77276 | 33315 ft | 406 kts | 227° |
| 2026-04-15 14:41 | 35.10378 | -13.82300 | 33314 ft | 405 kts | 227° |
| 2026-04-15 14:42 | 35.06517 | -13.87320 | 33323 ft | 405 kts | 227° |
| 2026-04-15 14:42 | 35.02658 | -13.92355 | 33316 ft | 408 kts | 227° |
| 2026-04-15 14:43 | 34.98782 | -13.97392 | 33318 ft | 406 kts | 227° |
| 2026-04-15 14:43 | 34.94908 | -14.02392 | 33318 ft | 406 kts | 227° |
| 2026-04-15 14:44 | 34.91028 | -14.07397 | 33318 ft | 406 kts | 227° |
| 2026-04-15 14:44 | 34.87148 | -14.12418 | 33317 ft | 407 kts | 226° |
| 2026-04-15 14:45 | 34.83266 | -14.17429 | 33317 ft | 407 kts | 226° |
| 2026-04-15 14:45 | 34.79380 | -14.22433 | 33319 ft | 407 kts | 226° |
| 2026-04-15 14:46 | 34.75498 | -14.27431 | 33316 ft | 407 kts | 226° |
| 2026-04-15 14:46 | 34.71615 | -14.32427 | 33313 ft | 406 kts | 226° |
| 2026-04-15 14:47 | 34.67725 | -14.37414 | 33309 ft | 406 kts | 226° |
| 2026-04-15 14:47 | 34.63837 | -14.42396 | 33298 ft | 406 kts | 226° |
| 2026-04-15 14:48 | 34.59950 | -14.47379 | 33294 ft | 407 kts | 226° |
| 2026-04-15 14:48 | 34.56053 | -14.52360 | 33294 ft | 407 kts | 226° |
| 2026-04-15 14:49 | 34.52148 | -14.57337 | 33293 ft | 407 kts | 226° |
| 2026-04-15 14:49 | 34.48237 | -14.62320 | 33295 ft | 408 kts | 226° |
| 2026-04-15 14:50 | 34.44318 | -14.67299 | 33291 ft | 408 kts | 226° |
| 2026-04-15 14:50 | 34.40423 | -14.72242 | 33292 ft | 408 kts | 226° |
| 2026-04-15 14:51 | 34.36505 | -14.77224 | 33296 ft | 409 kts | 226° |
| 2026-04-15 14:51 | 34.32574 | -14.82204 | 33289 ft | 409 kts | 225° |
| 2026-04-15 14:52 | 34.28633 | -14.87173 | 33290 ft | 410 kts | 225° |
| 2026-04-15 14:52 | 34.24681 | -14.92156 | 33293 ft | 411 kts | 225° |
| 2026-04-15 14:53 | 34.20734 | -14.97142 | 33291 ft | 411 kts | 225° |
| 2026-04-15 14:53 | 34.16773 | -15.02139 | 33291 ft | 412 kts | 225° |
| 2026-04-15 14:54 | 34.12805 | -15.07122 | 33290 ft | 412 kts | 225° |
| 2026-04-15 14:54 | 34.08829 | -15.12112 | 33289 ft | 412 kts | 225° |
| 2026-04-15 14:55 | 34.04851 | -15.17098 | 33291 ft | 412 kts | 225° |
| 2026-04-15 14:55 | 34.00873 | -15.22088 | 33288 ft | 413 kts | 225° |
| 2026-04-15 14:56 | 33.96883 | -15.27064 | 33284 ft | 413 kts | 225° |
| 2026-04-15 14:56 | 33.92887 | -15.32048 | 33284 ft | 414 kts | 225° |
| 2026-04-15 14:57 | 33.88897 | -15.37030 | 33285 ft | 414 kts | 225° |
| 2026-04-15 14:57 | 33.84864 | -15.42036 | 32959 ft | 422 kts | 225° |
| 2026-04-15 14:57 | 33.82818 | -15.44569 | 32217 ft | 423 kts | 225° |
| 2026-04-15 14:58 | 33.80770 | -15.47113 | 31571 ft | 422 kts | 225° |
| 2026-04-15 14:58 | 33.78739 | -15.49639 | 31090 ft | 417 kts | 225° |
| 2026-04-15 14:58 | 33.76732 | -15.52136 | 30615 ft | 413 kts | 225° |
| 2026-04-15 14:58 | 33.74743 | -15.54609 | 30106 ft | 409 kts | 225° |
| 2026-04-15 14:59 | 33.72776 | -15.57050 | 29629 ft | 404 kts | 224° |
| 2026-04-15 14:59 | 33.70836 | -15.59455 | 29187 ft | 398 kts | 225° |
| 2026-04-15 14:59 | 33.68921 | -15.61822 | 28755 ft | 392 kts | 224° |
| 2026-04-15 14:59 | 33.67032 | -15.64154 | 28321 ft | 387 kts | 224° |
| 2026-04-15 15:00 | 33.65168 | -15.66452 | 27901 ft | 382 kts | 224° |
| 2026-04-15 15:00 | 33.63329 | -15.68722 | 27476 ft | 377 kts | 224° |
| 2026-04-15 15:00 | 33.61511 | -15.70964 | 27046 ft | 373 kts | 224° |
| 2026-04-15 15:00 | 33.59714 | -15.73180 | 26623 ft | 369 kts | 224° |
| 2026-04-15 15:01 | 33.58530 | -15.74638 | 26327 ft | 367 kts | 225° |
| 2026-04-15 15:01 | 33.56753 | -15.76822 | 25902 ft | 364 kts | 225° |
| 2026-04-15 15:01 | 33.54988 | -15.78983 | 25448 ft | 362 kts | 224° |
| 2026-04-15 15:01 | 33.53204 | -15.81114 | 24974 ft | 361 kts | 224° |
| 2026-04-15 15:02 | 33.51411 | -15.83216 | 24524 ft | 360 kts | 224° |
| 2026-04-15 15:02 | 33.49031 | -15.85987 | 23878 ft | 360 kts | 224° |
| 2026-04-15 15:02 | 33.47236 | -15.88072 | 23351 ft | 359 kts | 224° |
| 2026-04-15 15:02 | 33.46031 | -15.89475 | 23020 ft | 357 kts | 224° |
| 2026-04-15 15:03 | 33.44253 | -15.91547 | 22571 ft | 355 kts | 224° |
| 2026-04-15 15:03 | 33.42490 | -15.93604 | 22116 ft | 353 kts | 223° |
| 2026-04-15 15:03 | 33.40734 | -15.95652 | 21665 ft | 352 kts | 224° |
| 2026-04-15 15:03 | 33.38987 | -15.97693 | 21214 ft | 350 kts | 224° |
| 2026-04-15 15:04 | 33.37248 | -15.99729 | 20775 ft | 349 kts | 223° |
| 2026-04-15 15:04 | 33.35514 | -16.01755 | 20331 ft | 348 kts | 223° |
| 2026-04-15 15:04 | 33.33782 | -16.03778 | 19886 ft | 347 kts | 223° |
| 2026-04-15 15:04 | 33.32055 | -16.05795 | 19454 ft | 347 kts | 223° |
| 2026-04-15 15:05 | 33.30330 | -16.07804 | 19025 ft | 346 kts | 222° |
| 2026-04-15 15:05 | 33.28606 | -16.09808 | 18586 ft | 346 kts | 223° |
| 2026-04-15 15:05 | 33.26880 | -16.11814 | 18111 ft | 346 kts | 222° |
| 2026-04-15 15:05 | 33.25185 | -16.13784 | 17692 ft | 344 kts | 223° |
| 2026-04-15 15:06 | 33.21773 | -16.17752 | 16859 ft | 341 kts | 223° |
| 2026-04-15 15:06 | 33.20074 | -16.19725 | 16447 ft | 340 kts | 222° |
| 2026-04-15 15:06 | 33.18382 | -16.21688 | 16041 ft | 339 kts | 223° |
| 2026-04-15 15:07 | 33.16697 | -16.23639 | 15638 ft | 338 kts | 223° |
| 2026-04-15 15:07 | 33.15011 | -16.25596 | 15239 ft | 337 kts | 222° |
| 2026-04-15 15:07 | 33.13334 | -16.27541 | 14838 ft | 336 kts | 221° |
| 2026-04-15 15:07 | 33.11660 | -16.29478 | 14438 ft | 336 kts | 222° |
| 2026-04-15 15:08 | 33.09973 | -16.31427 | 14020 ft | 337 kts | 221° |
| 2026-04-15 15:08 | 33.08297 | -16.33364 | 13594 ft | 336 kts | 221° |
| 2026-04-15 15:08 | 33.06628 | -16.35294 | 13190 ft | 334 kts | 222° |
| 2026-04-15 15:08 | 33.04964 | -16.37217 | 12782 ft | 333 kts | 222° |
| 2026-04-15 15:09 | 33.03303 | -16.39134 | 12368 ft | 332 kts | 223° |
| 2026-04-15 15:09 | 33.01644 | -16.41051 | 11949 ft | 331 kts | 222° |
| 2026-04-15 15:09 | 32.99992 | -16.42957 | 11532 ft | 330 kts | 222° |
| 2026-04-15 15:09 | 32.98340 | -16.44862 | 11116 ft | 330 kts | 223° |
| 2026-04-15 15:10 | 32.96693 | -16.46760 | 10695 ft | 329 kts | 223° |
| 2026-04-15 15:10 | 32.95059 | -16.48627 | 10512 ft | 320 kts | 219° |
| 2026-04-15 15:10 | 32.93258 | -16.50064 | 10385 ft | 306 kts | 203° |
| 2026-04-15 15:10 | 32.91286 | -16.50823 | 10283 ft | 291 kts | 187° |
| 2026-04-15 15:11 | 32.89333 | -16.50942 | 10287 ft | 272 kts | 174° |
| 2026-04-15 15:11 | 32.87488 | -16.50810 | 10282 ft | 258 kts | 174° |
| 2026-04-15 15:11 | 32.85717 | -16.50685 | 10287 ft | 254 kts | 173° |
| 2026-04-15 15:11 | 32.83974 | -16.50559 | 10291 ft | 253 kts | 172° |
| 2026-04-15 15:12 | 32.82224 | -16.50434 | 10284 ft | 252 kts | 173° |
| 2026-04-15 15:12 | 32.80477 | -16.50310 | 10283 ft | 251 kts | 173° |
| 2026-04-15 15:12 | 32.78708 | -16.50188 | 10277 ft | 251 kts | 173° |
| 2026-04-15 15:12 | 32.76993 | -16.50005 | 10282 ft | 249 kts | 165° |
| 2026-04-15 15:13 | 32.75367 | -16.49370 | 10276 ft | 245 kts | 149° |
| 2026-04-15 15:13 | 32.73970 | -16.48244 | 10282 ft | 242 kts | 134° |
| 2026-04-15 15:13 | 32.72906 | -16.46727 | 10282 ft | 239 kts | 119° |
| 2026-04-15 15:13 | 32.72228 | -16.44908 | 10286 ft | 237 kts | 104° |
| 2026-04-15 15:14 | 32.72001 | -16.43010 | 10283 ft | 236 kts | 89° |
| 2026-04-15 15:14 | 32.72239 | -16.41063 | 10260 ft | 254 kts | 71° |
| 2026-04-15 15:14 | 32.73263 | -16.39251 | 10128 ft | 276 kts | 41° |
| 2026-04-15 15:14 | 32.75032 | -16.38321 | 9999 ft | 287 kts | 9° |
| 2026-04-15 15:15 | 32.77008 | -16.38693 | 9866 ft | 296 kts | 336° |
| 2026-04-15 15:15 | 32.78558 | -16.40276 | 9700 ft | 296 kts | 306° |
| 2026-04-15 15:15 | 32.79553 | -16.42387 | 9440 ft | 291 kts | 296° |
| 2026-04-15 15:15 | 32.80339 | -16.44588 | 9152 ft | 288 kts | 293° |
| 2026-04-15 15:16 | 32.81052 | -16.46794 | 8850 ft | 284 kts | 292° |
| 2026-04-15 15:16 | 32.81763 | -16.48976 | 8547 ft | 281 kts | 293° |
| 2026-04-15 15:16 | 32.82490 | -16.51115 | 8265 ft | 278 kts | 294° |
| 2026-04-15 15:16 | 32.83233 | -16.53221 | 8140 ft | 276 kts | 295° |
| 2026-04-15 15:17 | 32.83983 | -16.55328 | 8026 ft | 278 kts | 291° |
| 2026-04-15 15:17 | 32.84305 | -16.57568 | 7876 ft | 275 kts | 268° |
| 2026-04-15 15:17 | 32.83953 | -16.59802 | 7503 ft | 279 kts | 246° |
| 2026-04-15 15:17 | 32.82934 | -16.61741 | 7139 ft | 275 kts | 224° |
| 2026-04-15 15:18 | 32.81436 | -16.63138 | 6715 ft | 273 kts | 205° |
| 2026-04-15 15:18 | 32.79696 | -16.63977 | 6280 ft | 271 kts | 194° |
| 2026-04-15 15:18 | 32.77921 | -16.64654 | 5970 ft | 266 kts | 194° |
| 2026-04-15 15:18 | 32.76252 | -16.65314 | 5602 ft | 266 kts | 195° |
| 2026-04-15 15:19 | 32.74491 | -16.66023 | 5214 ft | 267 kts | 195° |
| 2026-04-15 15:19 | 32.72739 | -16.66734 | 4851 ft | 265 kts | 195° |
| 2026-04-15 15:19 | 32.71074 | -16.67410 | 4481 ft | 265 kts | 196° |
| 2026-04-15 15:19 | 32.69310 | -16.68124 | 3969 ft | 269 kts | 196° |
| 2026-04-15 15:20 | 32.67585 | -16.68825 | 3704 ft | 254 kts | 197° |
| 2026-04-15 15:20 | 32.65970 | -16.69484 | 3577 ft | 238 kts | 197° |
| 2026-04-15 15:20 | 32.64455 | -16.70101 | 3461 ft | 224 kts | 198° |
| 2026-04-15 15:20 | 32.63050 | -16.70855 | 3096 ft | 226 kts | 214° |
| 2026-04-15 15:21 | 32.61905 | -16.72114 | 2674 ft | 221 kts | 234° |
| 2026-04-15 15:21 | 32.61169 | -16.73658 | 2287 ft | 210 kts | 252° |
| 2026-04-15 15:21 | 32.60857 | -16.75259 | 2124 ft | 189 kts | 269° |
| 2026-04-15 15:21 | 32.60895 | -16.76742 | 2021 ft | 173 kts | 286° |
| 2026-04-15 15:22 | 32.61217 | -16.78068 | 1924 ft | 162 kts | 303° |
| 2026-04-15 15:22 | 32.61838 | -16.79139 | 1702 ft | 153 kts | 323° |
| 2026-04-15 15:22 | 32.62666 | -16.79876 | 1485 ft | 147 kts | 338° |
| 2026-04-15 15:22 | 32.63590 | -16.80273 | 1337 ft | 136 kts | 355° |
| 2026-04-15 15:23 | 32.64503 | -16.80350 | 1128 ft | 133 kts | 6° |
| 2026-04-15 15:23 | 32.65425 | -16.80344 | 965 ft | 132 kts | 4° |
| 2026-04-15 15:23 | 32.66341 | -16.80342 | 777 ft | 132 kts | 5° |
| 2026-04-15 15:23 | 32.67228 | -16.80183 | 645 ft | 129 kts | 26° |
| 2026-04-15 15:24 | 32.67938 | -16.79533 | 509 ft | 129 kts | 41° |
| 2026-04-15 15:24 | 32.68619 | -16.78826 | 321 ft | 130 kts | 40° |
| 2026-04-15 15:24 | 32.69259 | -16.78063 | 198 ft | 129 kts | 42° |
| 2026-04-15 15:24 | 32.69428 | -16.77873 | 177 ft | 0 kts | 42° |
| 2026-04-15 15:25 | 32.69515 | -16.77770 | 177 ft | 23 kts | 47° |
| 2026-04-15 15:25 | 32.69605 | -16.77618 | 177 ft | 22 kts | 88° |
| 2026-04-15 15:25 | 32.69541 | -16.77541 | 169 ft | 9 kts | 202° |
| 2026-04-15 15:26 | 32.69520 | -16.77570 | 169 ft | 6 kts | 227° |
| 2026-04-15 15:26 | 32.69489 | -16.77610 | 169 ft | 7 kts | 227° |
| 2026-04-15 15:26 | 32.69454 | -16.77632 | 169 ft | 5 kts | 160° |
| 2026-04-15 15:26 | 32.69425 | -16.77604 | 169 ft | 6 kts | 138° |
| 2026-04-15 15:27 | 32.69413 | -16.77592 | 169 ft | 1 kts | 138° |
| 2026-04-15 15:27 | 32.69413 | -16.77591 | 169 ft | 0 kts | 138° |